sensor_id;sensor_type;location;lat;lon;timestamp;temperature;humidity
73688;SHT30;62257;48.376;-4.378;2022-08-11T00:02:31;22.66;51.06
73688;SHT30;62257;48.376;-4.378;2022-08-11T00:05:05;22.69;51.70
73688;SHT30;62257;48.376;-4.378;2022-08-11T00:07:32;22.72;51.10
73688;SHT30;62257;48.376;-4.378;2022-08-11T00:09:58;22.72;50.83
73688;SHT30;62257;48.376;-4.378;2022-08-11T00:12:24;22.69;50.54
73688;SHT30;62257;48.376;-4.378;2022-08-11T00:14:58;22.72;51.23
73688;SHT30;62257;48.376;-4.378;2022-08-11T00:17:32;22.67;51.06
73688;SHT30;62257;48.376;-4.378;2022-08-11T00:20:05;22.62;51.24
73688;SHT30;62257;48.376;-4.378;2022-08-11T00:22:32;22.63;51.20
73688;SHT30;62257;48.376;-4.378;2022-08-11T00:24:59;22.65;51.71
73688;SHT30;62257;48.376;-4.378;2022-08-11T00:27:34;22.63;50.74
73688;SHT30;62257;48.376;-4.378;2022-08-11T00:30:00;22.56;56.39
73688;SHT30;62257;48.376;-4.378;2022-08-11T00:32:28;22.42;57.43
73688;SHT30;62257;48.376;-4.378;2022-08-11T00:34:56;22.21;59.35
73688;SHT30;62257;48.376;-4.378;2022-08-11T00:37:22;21.98;59.33
73688;SHT30;62257;48.376;-4.378;2022-08-11T00:39:52;21.83;58.29
73688;SHT30;62257;48.376;-4.378;2022-08-11T00:45:06;21.54;58.63
73688;SHT30;62257;48.376;-4.378;2022-08-11T00:48:04;21.49;59.40
73688;SHT30;62257;48.376;-4.378;2022-08-11T00:51:04;21.45;58.68
73688;SHT30;62257;48.376;-4.378;2022-08-11T00:56:25;21.53;56.03
73688;SHT30;62257;48.376;-4.378;2022-08-11T00:59:25;21.57;57.04
73688;SHT30;62257;48.376;-4.378;2022-08-11T01:02:17;21.52;59.37
73688;SHT30;62257;48.376;-4.378;2022-08-11T01:10:47;21.35;57.64
73688;SHT30;62257;48.376;-4.378;2022-08-11T01:32:49;21.74;55.57
73688;SHT30;62257;48.376;-4.378;2022-08-11T01:41:12;21.53;56.37
73688;SHT30;62257;48.376;-4.378;2022-08-11T01:46:56;21.38;56.97
73688;SHT30;62257;48.376;-4.378;2022-08-11T01:49:56;21.29;57.36
73688;SHT30;62257;48.376;-4.378;2022-08-11T01:52:35;21.24;57.61
73688;SHT30;62257;48.376;-4.378;2022-08-11T01:55:16;21.16;57.85
73688;SHT30;62257;48.376;-4.378;2022-08-11T02:00:47;21.09;57.93
73688;SHT30;62257;48.376;-4.378;2022-08-11T02:04:05;21.05;58.19
73688;SHT30;62257;48.376;-4.378;2022-08-11T02:09:14;20.97;58.28
73688;SHT30;62257;48.376;-4.378;2022-08-11T02:11:44;20.94;58.44
73688;SHT30;62257;48.376;-4.378;2022-08-11T02:17:04;20.90;58.51
73688;SHT30;62257;48.376;-4.378;2022-08-11T02:19:59;20.85;59.20
73688;SHT30;62257;48.376;-4.378;2022-08-11T02:31:36;20.64;60.17
73688;SHT30;62257;48.376;-4.378;2022-08-11T02:39:34;20.53;60.55
73688;SHT30;62257;48.376;-4.378;2022-08-11T02:42:19;20.46;61.27
73688;SHT30;62257;48.376;-4.378;2022-08-11T02:48:02;20.37;61.53
73688;SHT30;62257;48.376;-4.378;2022-08-11T02:53:19;20.28;61.47
73688;SHT30;62257;48.376;-4.378;2022-08-11T02:56:15;20.22;62.44
73688;SHT30;62257;48.376;-4.378;2022-08-11T03:01:48;20.13;62.69
73688;SHT30;62257;48.376;-4.378;2022-08-11T03:04:23;20.11;62.32
73688;SHT30;62257;48.376;-4.378;2022-08-11T03:07:05;20.11;63.20
73688;SHT30;62257;48.376;-4.378;2022-08-11T03:12:20;20.04;63.21
73688;SHT30;62257;48.376;-4.378;2022-08-11T03:18:11;19.96;63.73
73688;SHT30;62257;48.376;-4.378;2022-08-11T03:21:12;19.94;63.76
73688;SHT30;62257;48.376;-4.378;2022-08-11T03:29:03;19.85;63.23
73688;SHT30;62257;48.376;-4.378;2022-08-11T03:31:44;19.81;64.51
73688;SHT30;62257;48.376;-4.378;2022-08-11T03:34:21;19.75;64.58
73688;SHT30;62257;48.376;-4.378;2022-08-11T03:46:24;19.73;64.76
73688;SHT30;62257;48.376;-4.378;2022-08-11T03:49:16;19.68;64.87
73688;SHT30;62257;48.376;-4.378;2022-08-11T03:51:52;19.71;64.65
73688;SHT30;62257;48.376;-4.378;2022-08-11T04:20:12;20.13;60.54
73688;SHT30;62257;48.376;-4.378;2022-08-11T04:23:01;20.25;59.48
73688;SHT30;62257;48.376;-4.378;2022-08-11T04:54:14;20.74;56.48
73688;SHT30;62257;48.376;-4.378;2022-08-11T04:57:16;20.83;56.30
73688;SHT30;62257;48.376;-4.378;2022-08-11T05:00:10;20.90;56.15
73688;SHT30;62257;48.376;-4.378;2022-08-11T05:14:51;21.18;55.28
73688;SHT30;62257;48.376;-4.378;2022-08-11T05:17:40;21.25;56.03
73688;SHT30;62257;48.376;-4.378;2022-08-11T05:20:45;21.26;55.04
73688;SHT30;62257;48.376;-4.378;2022-08-11T05:23:32;21.29;54.65
73688;SHT30;62257;48.376;-4.378;2022-08-11T05:26:18;21.31;55.24
73688;SHT30;62257;48.376;-4.378;2022-08-11T05:29:24;21.36;54.74
73688;SHT30;62257;48.376;-4.378;2022-08-11T05:32:12;21.35;55.83
73688;SHT30;62257;48.376;-4.378;2022-08-11T05:35:02;21.29;56.06
73688;SHT30;62257;48.376;-4.378;2022-08-11T05:42:54;21.35;54.92
73688;SHT30;62257;48.376;-4.378;2022-08-11T05:45:39;21.38;54.47
73688;SHT30;62257;48.376;-4.378;2022-08-11T05:48:33;21.43;54.37
73688;SHT30;62257;48.376;-4.378;2022-08-11T05:51:18;21.53;54.17
73688;SHT30;62257;48.376;-4.378;2022-08-11T05:54:03;21.59;53.82
73688;SHT30;62257;48.376;-4.378;2022-08-11T05:56:54;21.67;53.80
73688;SHT30;62257;48.376;-4.378;2022-08-11T05:59:22;21.73;53.55
73688;SHT30;62257;48.376;-4.378;2022-08-11T06:01:48;21.79;53.07
73688;SHT30;62257;48.376;-4.378;2022-08-11T06:04:20;21.83;53.25
73688;SHT30;62257;48.376;-4.378;2022-08-11T06:06:53;21.86;52.99
73688;SHT30;62257;48.376;-4.378;2022-08-11T06:12:00;21.98;52.80
73688;SHT30;62257;48.376;-4.378;2022-08-11T06:14:27;22.05;52.60
73688;SHT30;62257;48.376;-4.378;2022-08-11T06:16:56;22.10;52.40
73688;SHT30;62257;48.376;-4.378;2022-08-11T06:19:31;22.14;52.47
73688;SHT30;62257;48.376;-4.378;2022-08-11T06:21:58;22.21;52.12
73688;SHT30;62257;48.376;-4.378;2022-08-11T06:24:25;22.27;52.74
73688;SHT30;62257;48.376;-4.378;2022-08-11T06:26:54;22.32;52.87
73688;SHT30;62257;48.376;-4.378;2022-08-11T06:29:21;22.41;51.65
73688;SHT30;62257;48.376;-4.378;2022-08-11T06:31:59;22.49;51.42
73688;SHT30;62257;48.376;-4.378;2022-08-11T06:34:36;22.59;51.31
73688;SHT30;62257;48.376;-4.378;2022-08-11T06:37:08;22.67;50.92
73688;SHT30;62257;48.376;-4.378;2022-08-11T06:39:46;22.80;50.70
73688;SHT30;62257;48.376;-4.378;2022-08-11T06:42:45;22.94;49.82
73688;SHT30;62257;48.376;-4.378;2022-08-11T06:45:29;23.13;49.99
73688;SHT30;62257;48.376;-4.378;2022-08-11T06:47:55;23.28;49.01
73688;SHT30;62257;48.376;-4.378;2022-08-11T06:50:25;23.45;49.43
73688;SHT30;62257;48.376;-4.378;2022-08-11T06:53:10;23.61;48.91
73688;SHT30;62257;48.376;-4.378;2022-08-11T06:55:41;23.78;48.70
73688;SHT30;62257;48.376;-4.378;2022-08-11T06:58:28;23.96;46.96
73688;SHT30;62257;48.376;-4.378;2022-08-11T07:01:18;24.16;47.44
73688;SHT30;62257;48.376;-4.378;2022-08-11T07:03:48;24.34;47.71
73688;SHT30;62257;48.376;-4.378;2022-08-11T07:06:49;24.51;46.80
73688;SHT30;62257;48.376;-4.378;2022-08-11T07:15:34;25.02;45.63
73688;SHT30;62257;48.376;-4.378;2022-08-11T07:18:10;25.17;45.06
73688;SHT30;62257;48.376;-4.378;2022-08-11T07:21:06;25.36;44.83
73688;SHT30;62257;48.376;-4.378;2022-08-11T07:23:53;25.58;44.29
73688;SHT30;62257;48.376;-4.378;2022-08-11T07:26:40;25.74;43.28
73688;SHT30;62257;48.376;-4.378;2022-08-11T07:29:28;25.89;44.02
73688;SHT30;62257;48.376;-4.378;2022-08-11T07:31:57;26.08;43.92
73688;SHT30;62257;48.376;-4.378;2022-08-11T07:34:34;26.77;42.77
73688;SHT30;62257;48.376;-4.378;2022-08-11T07:37:08;27.46;40.83
73688;SHT30;62257;48.376;-4.378;2022-08-11T07:39:35;28.09;40.23
73688;SHT30;62257;48.376;-4.378;2022-08-11T07:42:08;27.96;39.92
73688;SHT30;62257;48.376;-4.378;2022-08-11T07:44:34;27.80;40.45
73688;SHT30;62257;48.376;-4.378;2022-08-11T07:47:24;28.02;39.58
73688;SHT30;62257;48.376;-4.378;2022-08-11T07:50:09;28.04;39.44
73688;SHT30;62257;48.376;-4.378;2022-08-11T07:52:55;27.98;42.83
73688;SHT30;62257;48.376;-4.378;2022-08-11T07:55:23;27.90;39.79
73688;SHT30;62257;48.376;-4.378;2022-08-11T07:57:50;27.90;40.57
73688;SHT30;62257;48.376;-4.378;2022-08-11T08:00:55;27.87;39.74
73688;SHT30;62257;48.376;-4.378;2022-08-11T08:03:41;27.86;40.40
73688;SHT30;62257;48.376;-4.378;2022-08-11T08:06:28;28.01;39.29
73688;SHT30;62257;48.376;-4.378;2022-08-11T08:09:15;28.39;39.77
73688;SHT30;62257;48.376;-4.378;2022-08-11T08:12:01;29.65;37.39
73688;SHT30;62257;48.376;-4.378;2022-08-11T08:14:46;31.27;34.99
73688;SHT30;62257;48.376;-4.378;2022-08-11T08:17:31;32.37;33.44
73688;SHT30;62257;48.376;-4.378;2022-08-11T08:20:19;33.02;30.95
73688;SHT30;62257;48.376;-4.378;2022-08-11T08:22:53;33.45;31.48
73688;SHT30;62257;48.376;-4.378;2022-08-11T08:25:25;33.72;30.12
73688;SHT30;62257;48.376;-4.378;2022-08-11T08:27:53;33.77;30.18
73688;SHT30;62257;48.376;-4.378;2022-08-11T08:30:18;33.87;30.92
73688;SHT30;62257;48.376;-4.378;2022-08-11T08:33:03;33.93;28.92
73688;SHT30;62257;48.376;-4.378;2022-08-11T08:35:29;33.86;31.43
73688;SHT30;62257;48.376;-4.378;2022-08-11T08:37:58;33.80;29.15
73688;SHT30;62257;48.376;-4.378;2022-08-11T08:40:26;33.72;32.33
73688;SHT30;62257;48.376;-4.378;2022-08-11T08:42:57;33.64;29.21
73688;SHT30;62257;48.376;-4.378;2022-08-11T08:45:24;33.56;30.72
73688;SHT30;62257;48.376;-4.378;2022-08-11T08:47:58;33.36;30.77
73688;SHT30;62257;48.376;-4.378;2022-08-11T08:50:30;33.33;29.89
73688;SHT30;62257;48.376;-4.378;2022-08-11T08:53:20;33.22;28.95
73688;SHT30;62257;48.376;-4.378;2022-08-11T08:55:47;33.08;29.18
73688;SHT30;62257;48.376;-4.378;2022-08-11T08:58:15;32.95;29.71
73688;SHT30;62257;48.376;-4.378;2022-08-11T09:00:45;32.95;31.86
73688;SHT30;62257;48.376;-4.378;2022-08-11T09:03:12;32.85;30.25
73688;SHT30;62257;48.376;-4.378;2022-08-11T09:05:39;32.82;30.60
73688;SHT30;62257;48.376;-4.378;2022-08-11T09:08:05;32.88;30.19
73688;SHT30;62257;48.376;-4.378;2022-08-11T09:10:32;32.84;29.76
73688;SHT30;62257;48.376;-4.378;2022-08-11T09:12:59;32.82;29.15
73688;SHT30;62257;48.376;-4.378;2022-08-11T09:15:25;32.82;29.79
73688;SHT30;62257;48.376;-4.378;2022-08-11T09:17:54;32.82;29.16
73688;SHT30;62257;48.376;-4.378;2022-08-11T09:20:30;32.85;29.01
73688;SHT30;62257;48.376;-4.378;2022-08-11T09:23:03;32.87;29.54
73688;SHT30;62257;48.376;-4.378;2022-08-11T09:25:57;32.81;30.20
73688;SHT30;62257;48.376;-4.378;2022-08-11T09:28:43;32.82;29.01
73688;SHT30;62257;48.376;-4.378;2022-08-11T09:31:10;32.75;28.35
73688;SHT30;62257;48.376;-4.378;2022-08-11T09:33:39;32.73;29.29
73688;SHT30;62257;48.376;-4.378;2022-08-11T09:36:07;32.80;30.44
73688;SHT30;62257;48.376;-4.378;2022-08-11T09:38:52;32.87;28.49
73688;SHT30;62257;48.376;-4.378;2022-08-11T09:41:37;32.78;26.81
73688;SHT30;62257;48.376;-4.378;2022-08-11T09:44:05;32.75;30.21
73688;SHT30;62257;48.376;-4.378;2022-08-11T09:46:51;32.65;28.66
73688;SHT30;62257;48.376;-4.378;2022-08-11T09:49:19;32.70;26.96
73688;SHT30;62257;48.376;-4.378;2022-08-11T09:51:46;32.71;27.03
73688;SHT30;62257;48.376;-4.378;2022-08-11T09:54:12;32.78;27.02
73688;SHT30;62257;48.376;-4.378;2022-08-11T09:56:37;32.78;27.50
73688;SHT30;62257;48.376;-4.378;2022-08-11T09:59:21;32.81;25.90
73688;SHT30;62257;48.376;-4.378;2022-08-11T10:01:57;32.81;26.14
73688;SHT30;62257;48.376;-4.378;2022-08-11T10:04:39;32.87;27.29
73688;SHT30;62257;48.376;-4.378;2022-08-11T10:07:05;32.87;25.37
73688;SHT30;62257;48.376;-4.378;2022-08-11T10:12:24;32.81;25.20
73688;SHT30;62257;48.376;-4.378;2022-08-11T10:14:56;32.80;24.95
73688;SHT30;62257;48.376;-4.378;2022-08-11T10:17:45;32.85;25.17
73688;SHT30;62257;48.376;-4.378;2022-08-11T10:20:33;32.81;26.17
73688;SHT30;62257;48.376;-4.378;2022-08-11T10:23:00;32.65;25.65
73688;SHT30;62257;48.376;-4.378;2022-08-11T10:25:45;32.40;25.80
73688;SHT30;62257;48.376;-4.378;2022-08-11T10:28:30;32.10;25.85
73688;SHT30;62257;48.376;-4.378;2022-08-11T10:30:57;31.85;26.04
73688;SHT30;62257;48.376;-4.378;2022-08-11T10:33:43;31.65;27.06
73688;SHT30;62257;48.376;-4.378;2022-08-11T10:36:26;31.60;26.87
73688;SHT30;62257;48.376;-4.378;2022-08-11T10:38:51;31.48;26.17
73688;SHT30;62257;48.376;-4.378;2022-08-11T10:41:18;31.40;27.16
73688;SHT30;62257;48.376;-4.378;2022-08-11T10:44:04;31.38;27.16
73688;SHT30;62257;48.376;-4.378;2022-08-11T10:46:30;31.35;27.33
73688;SHT30;62257;48.376;-4.378;2022-08-11T10:49:15;31.35;27.33
73688;SHT30;62257;48.376;-4.378;2022-08-11T10:51:41;31.37;29.39
73688;SHT30;62257;48.376;-4.378;2022-08-11T10:54:26;31.37;28.52
73688;SHT30;62257;48.376;-4.378;2022-08-11T10:57:13;31.30;29.09
73688;SHT30;62257;48.376;-4.378;2022-08-11T10:59:59;31.24;27.45
73688;SHT30;62257;48.376;-4.378;2022-08-11T11:02:25;31.22;27.84
73688;SHT30;62257;48.376;-4.378;2022-08-11T11:08:04;31.20;27.43
73688;SHT30;62257;48.376;-4.378;2022-08-11T11:10:54;31.17;28.13
73688;SHT30;62257;48.376;-4.378;2022-08-11T11:13:22;31.16;28.43
73688;SHT30;62257;48.376;-4.378;2022-08-11T11:16:08;31.17;28.00
73688;SHT30;62257;48.376;-4.378;2022-08-11T11:18:53;31.23;29.10
73688;SHT30;62257;48.376;-4.378;2022-08-11T11:21:19;31.26;29.53
73688;SHT30;62257;48.376;-4.378;2022-08-11T11:24:13;31.27;29.59
73688;SHT30;62257;48.376;-4.378;2022-08-11T11:29:39;31.30;30.54
73688;SHT30;62257;48.376;-4.378;2022-08-11T11:37:22;31.45;30.78
73688;SHT30;62257;48.376;-4.378;2022-08-11T11:39:48;31.47;30.85
73688;SHT30;62257;48.376;-4.378;2022-08-11T11:42:15;31.45;30.96
73688;SHT30;62257;48.376;-4.378;2022-08-11T11:44:43;31.43;29.95
73688;SHT30;62257;48.376;-4.378;2022-08-11T11:47:11;31.40;30.37
73688;SHT30;62257;48.376;-4.378;2022-08-11T11:49:37;31.40;30.00
73688;SHT30;62257;48.376;-4.378;2022-08-11T11:52:06;31.35;31.28
73688;SHT30;62257;48.376;-4.378;2022-08-11T11:54:33;31.37;31.21
73688;SHT30;62257;48.376;-4.378;2022-08-11T11:57:01;31.41;31.06
73688;SHT30;62257;48.376;-4.378;2022-08-11T11:59:47;31.34;31.47
73688;SHT30;62257;48.376;-4.378;2022-08-11T12:02:34;31.37;31.74
73688;SHT30;62257;48.376;-4.378;2022-08-11T12:05:01;31.40;31.68
73688;SHT30;62257;48.376;-4.378;2022-08-11T12:07:27;31.37;31.80
73688;SHT30;62257;48.376;-4.378;2022-08-11T12:10:12;31.40;32.23
73688;SHT30;62257;48.376;-4.378;2022-08-11T12:12:39;31.44;31.70
73688;SHT30;62257;48.376;-4.378;2022-08-11T12:15:23;31.44;31.88
73688;SHT30;62257;48.376;-4.378;2022-08-11T12:17:49;31.35;31.37
73688;SHT30;62257;48.376;-4.378;2022-08-11T12:20:16;31.31;31.34
73688;SHT30;62257;48.376;-4.378;2022-08-11T12:22:45;31.31;31.27
73688;SHT30;62257;48.376;-4.378;2022-08-11T12:25:29;31.33;31.22
73688;SHT30;62257;48.376;-4.378;2022-08-11T12:28:13;31.31;30.63
73688;SHT30;62257;48.376;-4.378;2022-08-11T12:30:39;31.33;30.87
73688;SHT30;62257;48.376;-4.378;2022-08-11T12:33:07;31.33;31.09
73688;SHT30;62257;48.376;-4.378;2022-08-11T12:35:34;31.31;31.74
73688;SHT30;62257;48.376;-4.378;2022-08-11T12:38:02;31.34;31.21
73688;SHT30;62257;48.376;-4.378;2022-08-11T12:40:28;31.35;31.39
73688;SHT30;62257;48.376;-4.378;2022-08-11T12:43:32;31.27;30.63
73688;SHT30;62257;48.376;-4.378;2022-08-11T12:46:28;31.27;31.43
73688;SHT30;62257;48.376;-4.378;2022-08-11T12:48:57;31.29;31.20
73688;SHT30;62257;48.376;-4.378;2022-08-11T12:51:48;31.31;30.96
73688;SHT30;62257;48.376;-4.378;2022-08-11T12:54:33;31.34;30.73
73688;SHT30;62257;48.376;-4.378;2022-08-11T12:57:05;31.31;30.69
73688;SHT30;62257;48.376;-4.378;2022-08-11T12:59:51;31.29;31.16
73688;SHT30;62257;48.376;-4.378;2022-08-11T13:02:35;31.26;31.01
73688;SHT30;62257;48.376;-4.378;2022-08-11T13:05:20;31.20;31.11
73688;SHT30;62257;48.376;-4.378;2022-08-11T13:07:47;31.22;31.82
73688;SHT30;62257;48.376;-4.378;2022-08-11T13:10:15;31.22;31.87
73688;SHT30;62257;48.376;-4.378;2022-08-11T13:13:06;31.26;31.75
73688;SHT30;62257;48.376;-4.378;2022-08-11T13:15:32;31.23;31.98
73688;SHT30;62257;48.376;-4.378;2022-08-11T13:18:02;31.20;32.63
73688;SHT30;62257;48.376;-4.378;2022-08-11T13:20:28;31.16;33.38
73688;SHT30;62257;48.376;-4.378;2022-08-11T13:22:55;31.14;33.74
73688;SHT30;62257;48.376;-4.378;2022-08-11T13:25:25;31.17;34.35
73688;SHT30;62257;48.376;-4.378;2022-08-11T13:27:54;31.20;34.98
73688;SHT30;62257;48.376;-4.378;2022-08-11T13:30:22;31.13;35.33
73688;SHT30;62257;48.376;-4.378;2022-08-11T13:33:08;31.20;35.15
73688;SHT30;62257;48.376;-4.378;2022-08-11T13:35:35;31.19;34.89
73688;SHT30;62257;48.376;-4.378;2022-08-11T13:38:01;31.16;34.71
73688;SHT30;62257;48.376;-4.378;2022-08-11T13:40:28;31.14;35.23
73688;SHT30;62257;48.376;-4.378;2022-08-11T13:42:55;31.14;35.44
73688;SHT30;62257;48.376;-4.378;2022-08-11T13:45:25;31.13;35.57
73688;SHT30;62257;48.376;-4.378;2022-08-11T13:47:57;31.13;35.50
73688;SHT30;62257;48.376;-4.378;2022-08-11T13:50:25;31.13;35.14
73688;SHT30;62257;48.376;-4.378;2022-08-11T13:53:13;31.09;34.69
73688;SHT30;62257;48.376;-4.378;2022-08-11T13:55:40;31.03;34.98
73688;SHT30;62257;48.376;-4.378;2022-08-11T13:58:11;31.04;34.30
73688;SHT30;62257;48.376;-4.378;2022-08-11T14:00:37;31.06;34.45
73688;SHT30;62257;48.376;-4.378;2022-08-11T14:03:08;31.06;34.75
73688;SHT30;62257;48.376;-4.378;2022-08-11T14:05:41;31.12;34.84
73688;SHT30;62257;48.376;-4.378;2022-08-11T14:08:11;31.12;35.03
73688;SHT30;62257;48.376;-4.378;2022-08-11T14:10:38;31.13;35.33
73688;SHT30;62257;48.376;-4.378;2022-08-11T14:13:15;31.19;34.69
73688;SHT30;62257;48.376;-4.378;2022-08-11T14:16:07;31.17;34.45
73688;SHT30;62257;48.376;-4.378;2022-08-11T14:18:34;31.13;34.30
73688;SHT30;62257;48.376;-4.378;2022-08-11T14:21:03;31.16;33.33
73688;SHT30;62257;48.376;-4.378;2022-08-11T14:23:51;31.09;33.11
73688;SHT30;62257;48.376;-4.378;2022-08-11T14:26:20;31.07;33.02
73688;SHT30;62257;48.376;-4.378;2022-08-11T14:28:59;31.06;33.34
73688;SHT30;62257;48.376;-4.378;2022-08-11T14:31:28;31.09;33.23
73688;SHT30;62257;48.376;-4.378;2022-08-11T14:33:55;31.07;33.38
73688;SHT30;62257;48.376;-4.378;2022-08-11T14:36:25;31.02;33.75
73688;SHT30;62257;48.376;-4.378;2022-08-11T14:38:53;30.97;32.99
73688;SHT30;62257;48.376;-4.378;2022-08-11T14:41:20;31.02;33.03
73688;SHT30;62257;48.376;-4.378;2022-08-11T14:44:08;30.92;33.44
73688;SHT30;62257;48.376;-4.378;2022-08-11T14:46:54;30.93;33.48
73688;SHT30;62257;48.376;-4.378;2022-08-11T14:49:34;30.87;33.56
73688;SHT30;62257;48.376;-4.378;2022-08-11T14:52:12;30.92;33.43
73688;SHT30;62257;48.376;-4.378;2022-08-11T14:54:41;30.87;34.04
73688;SHT30;62257;48.376;-4.378;2022-08-11T14:57:27;30.83;34.06
73688;SHT30;62257;48.376;-4.378;2022-08-11T14:59:56;30.80;33.43
73688;SHT30;62257;48.376;-4.378;2022-08-11T15:02:22;30.78;33.23
73688;SHT30;62257;48.376;-4.378;2022-08-11T15:05:07;30.78;33.22
73688;SHT30;62257;48.376;-4.378;2022-08-11T15:07:33;30.78;33.02
73688;SHT30;62257;48.376;-4.378;2022-08-11T15:10:01;30.76;32.85
73688;SHT30;62257;48.376;-4.378;2022-08-11T15:12:29;30.76;32.00
73688;SHT30;62257;48.376;-4.378;2022-08-11T15:14:56;30.74;32.19
73688;SHT30;62257;48.376;-4.378;2022-08-11T15:17:40;30.69;32.29
73688;SHT30;62257;48.376;-4.378;2022-08-11T15:20:11;30.61;32.23
73688;SHT30;62257;48.376;-4.378;2022-08-11T15:22:56;30.58;31.88
73688;SHT30;62257;48.376;-4.378;2022-08-11T15:25:45;30.58;32.01
73688;SHT30;62257;48.376;-4.378;2022-08-11T15:28:14;30.55;31.73
73688;SHT30;62257;48.376;-4.378;2022-08-11T15:31:02;30.47;32.69
73688;SHT30;62257;48.376;-4.378;2022-08-11T15:33:51;30.47;33.02
73688;SHT30;62257;48.376;-4.378;2022-08-11T15:36:36;30.49;33.42
73688;SHT30;62257;48.376;-4.378;2022-08-11T15:39:34;30.47;32.83
73688;SHT30;62257;48.376;-4.378;2022-08-11T15:42:12;30.44;33.12
73688;SHT30;62257;48.376;-4.378;2022-08-11T15:44:59;30.41;33.43
73688;SHT30;62257;48.376;-4.378;2022-08-11T15:47:51;30.37;33.99
73688;SHT30;62257;48.376;-4.378;2022-08-11T15:50:25;30.31;34.27
73688;SHT30;62257;48.376;-4.378;2022-08-11T15:53:31;30.28;34.31
73688;SHT30;62257;48.376;-4.378;2022-08-11T15:55:58;30.34;34.84
73688;SHT30;62257;48.376;-4.378;2022-08-11T15:58:31;30.31;34.85
73688;SHT30;62257;48.376;-4.378;2022-08-11T16:01:18;30.30;35.33
73688;SHT30;62257;48.376;-4.378;2022-08-11T16:04:08;30.27;35.52
73688;SHT30;62257;48.376;-4.378;2022-08-11T16:06:54;30.25;35.58
73688;SHT30;62257;48.376;-4.378;2022-08-11T16:10:04;30.24;35.27
73688;SHT30;62257;48.376;-4.378;2022-08-11T16:12:59;30.23;35.02
73688;SHT30;62257;48.376;-4.378;2022-08-11T16:15:52;30.17;34.91
73688;SHT30;62257;48.376;-4.378;2022-08-11T16:18:43;30.18;35.11
73688;SHT30;62257;48.376;-4.378;2022-08-11T16:21:20;30.18;34.47
73688;SHT30;62257;48.376;-4.378;2022-08-11T16:23:49;30.17;35.00
73688;SHT30;62257;48.376;-4.378;2022-08-11T16:26:19;30.14;35.01
73688;SHT30;62257;48.376;-4.378;2022-08-11T16:28:50;30.13;34.90
73688;SHT30;62257;48.376;-4.378;2022-08-11T16:31:17;30.07;35.21
73688;SHT30;62257;48.376;-4.378;2022-08-11T16:33:44;30.06;35.46
73688;SHT30;62257;48.376;-4.378;2022-08-11T16:36:12;30.07;35.14
73688;SHT30;62257;48.376;-4.378;2022-08-11T16:38:58;30.06;35.53
73688;SHT30;62257;48.376;-4.378;2022-08-11T16:41:26;30.07;35.64
73688;SHT30;62257;48.376;-4.378;2022-08-11T16:44:13;29.94;35.44
73688;SHT30;62257;48.376;-4.378;2022-08-11T16:46:58;29.94;35.63
73688;SHT30;62257;48.376;-4.378;2022-08-11T16:49:35;29.90;35.37
73688;SHT30;62257;48.376;-4.378;2022-08-11T16:52:03;29.87;34.90
73688;SHT30;62257;48.376;-4.378;2022-08-11T16:54:33;29.84;35.09
73688;SHT30;62257;48.376;-4.378;2022-08-11T16:57:02;29.77;35.40
73688;SHT30;62257;48.376;-4.378;2022-08-11T16:59:50;29.72;35.91
73688;SHT30;62257;48.376;-4.378;2022-08-11T17:02:18;29.70;36.01
73688;SHT30;62257;48.376;-4.378;2022-08-11T17:05:08;29.63;35.86
73688;SHT30;62257;48.376;-4.378;2022-08-11T17:07:55;29.59;35.78
73688;SHT30;62257;48.376;-4.378;2022-08-11T17:10:47;29.52;36.06
73688;SHT30;62257;48.376;-4.378;2022-08-11T17:13:52;29.54;36.37
73688;SHT30;62257;48.376;-4.378;2022-08-11T17:16:25;29.54;36.54
73688;SHT30;62257;48.376;-4.378;2022-08-11T17:21:28;29.38;36.41
73688;SHT30;62257;48.376;-4.378;2022-08-11T17:24:14;29.34;36.27
73688;SHT30;62257;48.376;-4.378;2022-08-11T17:26:42;29.29;36.49
73688;SHT30;62257;48.376;-4.378;2022-08-11T17:29:28;29.27;36.57
73688;SHT30;62257;48.376;-4.378;2022-08-11T17:31:55;29.28;36.80
73688;SHT30;62257;48.376;-4.378;2022-08-11T17:34:42;29.21;36.76
73688;SHT30;62257;48.376;-4.378;2022-08-11T17:37:28;29.15;37.05
73688;SHT30;62257;48.376;-4.378;2022-08-11T17:39:59;29.11;37.46
73688;SHT30;62257;48.376;-4.378;2022-08-11T17:42:29;29.10;37.56
73688;SHT30;62257;48.376;-4.378;2022-08-11T17:45:17;29.04;37.96
73688;SHT30;62257;48.376;-4.378;2022-08-11T17:48:03;29.01;37.94
73688;SHT30;62257;48.376;-4.378;2022-08-11T17:50:51;28.96;37.92
73688;SHT30;62257;48.376;-4.378;2022-08-11T17:53:18;28.90;37.96
73688;SHT30;62257;48.376;-4.378;2022-08-11T17:56:03;28.93;38.06
73688;SHT30;62257;48.376;-4.378;2022-08-11T17:58:58;28.87;38.16
73688;SHT30;62257;48.376;-4.378;2022-08-11T18:01:43;28.81;38.27
73688;SHT30;62257;48.376;-4.378;2022-08-11T18:04:10;28.79;38.39
73688;SHT30;62257;48.376;-4.378;2022-08-11T18:06:37;28.77;38.66
73688;SHT30;62257;48.376;-4.378;2022-08-11T18:09:08;28.72;38.67
73688;SHT30;62257;48.376;-4.378;2022-08-11T18:11:54;28.69;38.94
73688;SHT30;62257;48.376;-4.378;2022-08-11T18:14:45;28.62;39.36
73688;SHT30;62257;48.376;-4.378;2022-08-11T18:17:30;28.57;39.36
73688;SHT30;62257;48.376;-4.378;2022-08-11T18:20:16;28.49;39.80
73688;SHT30;62257;48.376;-4.378;2022-08-11T18:23:04;28.45;40.44
73688;SHT30;62257;48.376;-4.378;2022-08-11T18:25:51;28.38;40.77
73688;SHT30;62257;48.376;-4.378;2022-08-11T18:28:46;28.25;41.00
73688;SHT30;62257;48.376;-4.378;2022-08-11T18:31:34;28.18;41.20
73688;SHT30;62257;48.376;-4.378;2022-08-11T18:34:25;28.09;42.18
73688;SHT30;62257;48.376;-4.378;2022-08-11T18:37:15;27.97;42.55
73688;SHT30;62257;48.376;-4.378;2022-08-11T18:40:15;27.90;42.39
73688;SHT30;62257;48.376;-4.378;2022-08-11T18:43:04;27.80;42.61
73688;SHT30;62257;48.376;-4.378;2022-08-11T18:45:51;27.71;42.84
73688;SHT30;62257;48.376;-4.378;2022-08-11T18:48:38;27.61;42.96
73688;SHT30;62257;48.376;-4.378;2022-08-11T18:51:25;27.53;43.49
73688;SHT30;62257;48.376;-4.378;2022-08-11T18:54:11;27.46;43.61
73688;SHT30;62257;48.376;-4.378;2022-08-11T18:57:00;27.32;44.46
73688;SHT30;62257;48.376;-4.378;2022-08-11T18:59:46;27.23;44.81
73688;SHT30;62257;48.376;-4.378;2022-08-11T19:02:34;27.12;44.60
73688;SHT30;62257;48.376;-4.378;2022-08-11T19:05:20;27.01;44.75
73688;SHT30;62257;48.376;-4.378;2022-08-11T19:08:06;26.90;45.37
73688;SHT30;62257;48.376;-4.378;2022-08-11T19:10:52;26.74;46.24
73688;SHT30;62257;48.376;-4.378;2022-08-11T19:13:38;26.63;46.43
73688;SHT30;62257;48.376;-4.378;2022-08-11T19:16:24;26.49;46.72
73688;SHT30;62257;48.376;-4.378;2022-08-11T19:19:09;26.39;46.88
73688;SHT30;62257;48.376;-4.378;2022-08-11T19:21:56;26.25;48.04
73688;SHT30;62257;48.376;-4.378;2022-08-11T19:24:43;26.12;48.35
73688;SHT30;62257;48.376;-4.378;2022-08-11T19:27:29;26.01;48.74
73688;SHT30;62257;48.376;-4.378;2022-08-11T19:30:14;25.89;49.08
73688;SHT30;62257;48.376;-4.378;2022-08-11T19:32:58;25.75;49.76